createdAt,value
2022-10-05T00:03:22.727Z,96463.69
2022-10-05T00:08:30.170Z,96458.59
2022-10-05T00:13:31.703Z,96436.25
2022-10-05T00:18:33.199Z,96445.25
2022-10-05T00:23:34.739Z,96442.91
2022-10-05T00:28:36.322Z,96443.63
2022-10-05T00:33:37.891Z,96440.53
2022-10-05T00:38:40.348Z,96436.97
2022-10-05T00:43:53.963Z,96437.34
2022-10-05T00:49:13.701Z,96430.31
2022-10-05T00:54:41.636Z,96418.53
2022-10-05T01:00:02.793Z,96415.41
2022-10-05T01:05:15.812Z,96404.44
2022-10-05T01:10:23.314Z,96416.94
2022-10-05T01:15:46.791Z,96414.19
2022-10-05T01:21:00.520Z,96405.97
2022-10-05T01:26:30.300Z,96412.22
2022-10-05T01:31:34.934Z,96412.94
2022-10-05T01:36:48.831Z,96410.59
2022-10-05T01:42:03.753Z,96403.94
2022-10-05T01:47:12.227Z,96402.75
2022-10-05T01:52:16.683Z,96402.69
2022-10-05T01:57:26.525Z,96398.00
2022-10-05T02:02:31.620Z,96408.53
2022-10-05T02:07:42.135Z,96396.81
2022-10-05T02:12:46.548Z,96384.28
2022-10-05T02:17:52.740Z,96386.63
2022-10-05T02:23:00.499Z,96387.41
2022-10-05T02:28:10.034Z,96391.69
2022-10-05T02:33:22.278Z,96409.66
2022-10-05T02:38:48.968Z,96404.97
2022-10-05T02:43:59.635Z,96400.66
2022-10-05T02:49:37.649Z,96393.56
2022-10-05T02:55:05.808Z,96388.50
2022-10-05T03:00:17.607Z,96393.16
2022-10-05T03:05:30.759Z,96400.56
2022-10-05T03:10:42.701Z,96397.44
2022-10-05T03:15:48.910Z,96384.88
2022-10-05T03:21:03.234Z,96375.88
2022-10-05T03:26:27.007Z,96363.72
2022-10-05T03:31:46.579Z,96364.06
2022-10-05T03:37:27.969Z,96359.34
2022-10-05T03:42:51.262Z,96348.34
2022-10-05T03:48:05.459Z,96346.75
2022-10-05T03:53:14.528Z,96345.16
2022-10-05T03:58:30.150Z,96342.78
2022-10-05T04:03:39.694Z,96353.69
2022-10-05T04:08:47.835Z,96363.00
2022-10-05T04:14:14.306Z,96364.53
2022-10-05T04:19:24.536Z,96366.84
2022-10-05T04:24:35.060Z,96372.31
2022-10-05T04:29:48.230Z,96365.22
2022-10-05T04:35:07.028Z,96359.75
2022-10-05T04:40:15.221Z,96360.81
2022-10-05T04:45:38.364Z,96353.75
2022-10-05T04:50:46.125Z,96346.28
2022-10-05T04:55:58.309Z,96351.31
2022-10-05T05:01:30.937Z,96342.69
2022-10-05T05:06:40.107Z,96347.34
2022-10-05T05:12:03.914Z,96339.94
2022-10-05T05:17:27.819Z,96327.00
2022-10-05T05:22:50.734Z,96334.00
2022-10-05T05:28:16.783Z,96331.25
2022-10-05T05:33:37.553Z,96336.66
2022-10-05T05:38:39.919Z,96335.44
2022-10-05T05:43:58.165Z,96349.50
2022-10-05T05:49:07.852Z,96354.97
2022-10-05T05:54:26.055Z,96358.47
2022-10-05T05:59:38.381Z,96367.44
2022-10-05T06:04:52.488Z,96371.00
2022-10-05T06:10:26.403Z,96376.88
2022-10-05T06:15:44.863Z,96380.41
2022-10-05T06:21:00.797Z,96375.38
2022-10-05T06:26:10.932Z,96381.66
2022-10-05T06:31:29.672Z,96379.75
2022-10-05T06:36:50.350Z,96386.47
2022-10-05T06:42:08.317Z,96392.34
2022-10-05T06:48:01.626Z,96399.88
2022-10-05T06:54:03.901Z,96396.41
2022-10-05T06:59:15.408Z,96408.19
2022-10-05T07:04:38.879Z,96410.63
2022-10-05T07:10:15.381Z,96421.22
2022-10-05T07:15:36.079Z,96432.63
2022-10-05T07:20:59.234Z,96437.38
2022-10-05T07:26:18.865Z,96442.16
2022-10-05T07:31:44.185Z,96435.56
2022-10-05T07:37:18.092Z,96444.25
2022-10-05T07:42:48.846Z,96447.06
2022-10-05T07:47:59.491Z,96451.81
2022-10-05T07:53:10.849Z,96439.78
2022-10-05T07:58:34.588Z,96447.69
2022-10-05T08:03:44.484Z,96446.97
2022-10-05T08:09:04.464Z,96450.16
2022-10-05T08:14:20.376Z,96450.22
2022-10-05T08:19:30.094Z,96440.91
2022-10-05T08:24:43.769Z,96450.72
2022-10-05T08:29:51.476Z,96449.59
2022-10-05T08:35:34.480Z,96446.50
2022-10-05T08:41:14.781Z,96451.25
2022-10-05T08:46:31.218Z,96448.50
2022-10-05T08:51:56.759Z,96444.22
2022-10-05T08:57:27.398Z,96447.78
2022-10-05T09:02:47.912Z,96450.13
2022-10-05T09:08:26.803Z,96449.75
2022-10-05T09:14:03.842Z,96454.84
2022-10-05T09:19:36.237Z,96465.03
2022-10-05T09:25:03.499Z,96458.72
2022-10-05T09:30:27.058Z,96463.78
2022-10-05T09:36:16.707Z,96454.69
2022-10-05T09:41:37.417Z,96455.84
2022-10-05T09:46:50.934Z,96447.88
2022-10-05T09:52:06.753Z,96439.91
2022-10-05T09:57:17.432Z,96436.28
2022-10-05T10:02:34.162Z,96441.28
2022-10-05T10:07:56.172Z,96429.38
2022-10-05T10:13:52.041Z,96417.88
2022-10-05T10:19:15.575Z,96407.09
2022-10-05T10:24:48.662Z,96412.88
2022-10-05T10:30:27.780Z,96399.34
2022-10-05T10:35:33.443Z,96403.91
2022-10-05T10:41:12.695Z,96398.63
2022-10-05T10:46:31.969Z,96398.09
2022-10-05T10:52:01.889Z,96396.78
2022-10-05T10:57:06.612Z,96396.25
2022-10-05T11:02:20.273Z,96397.66
2022-10-05T11:07:45.283Z,96397.84
2022-10-05T11:13:11.826Z,96393.66
2022-10-05T11:18:20.368Z,96381.22
2022-10-05T11:23:43.275Z,96378.16
2022-10-05T11:29:12.756Z,96364.09
2022-10-05T11:34:37.986Z,96366.63
2022-10-05T11:40:11.318Z,96363.97
2022-10-05T11:45:36.833Z,96369.22
2022-10-05T11:51:03.626Z,96357.88
2022-10-05T12:01:45.703Z,96354.41
2022-10-05T12:07:01.078Z,96345.47
2022-10-05T12:12:27.027Z,96342.94
2022-10-05T12:17:44.673Z,96335.25
2022-10-05T12:22:55.048Z,96333.88
2022-10-05T12:28:12.958Z,96338.13
2022-10-05T12:33:21.238Z,96341.50
2022-10-05T12:38:28.660Z,96321.28
2022-10-05T12:44:06.251Z,96330.63
2022-10-05T12:49:07.785Z,96320.25
2022-10-05T12:54:21.801Z,96322.84
2022-10-05T12:59:37.524Z,96325.09
2022-10-05T13:05:02.919Z,96322.94
2022-10-05T13:10:33.420Z,96326.72
2022-10-05T13:15:56.129Z,96328.66
2022-10-05T13:21:20.505Z,96325.00
2022-10-05T13:26:31.685Z,96324.03
2022-10-05T13:31:42.940Z,96326.72
2022-10-05T13:36:59.882Z,96327.06
2022-10-05T13:42:12.518Z,96330.91
2022-10-05T13:47:35.697Z,96332.00
2022-10-05T13:52:40.072Z,96324.94
2022-10-05T13:57:57.857Z,96328.06
2022-10-05T14:03:00.767Z,96327.59
2022-10-05T14:08:02.290Z,96323.94
2022-10-05T14:13:22.547Z,96328.97
2022-10-05T14:18:27.411Z,96312.69
2022-10-05T14:23:29.850Z,96314.25
2022-10-05T14:28:39.027Z,96310.97
2022-10-05T14:33:41.148Z,96302.53
2022-10-05T14:38:55.430Z,96299.66
2022-10-05T14:43:59.899Z,96298.34
2022-10-05T14:49:33.150Z,96287.94
2022-10-05T14:55:00.865Z,96282.06
2022-10-05T15:00:18.623Z,96292.72
2022-10-05T15:05:44.560Z,96275.31
2022-10-05T15:10:56.549Z,96279.22
2022-10-05T15:16:05.428Z,96274.88
2022-10-05T15:21:35.798Z,96278.53
2022-10-05T15:26:51.432Z,96263.53
2022-10-05T15:31:59.069Z,96271.84
2022-10-05T15:37:22.594Z,96268.41
2022-10-05T15:42:39.022Z,96274.06
2022-10-05T15:48:00.014Z,96266.28
2022-10-05T15:53:20.607Z,96275.91
2022-10-05T15:58:31.370Z,96274.88
2022-10-05T16:03:51.579Z,96276.25
2022-10-05T16:09:34.660Z,96275.31
2022-10-05T16:15:04.264Z,96273.50
2022-10-05T16:20:21.012Z,96275.69
2022-10-05T16:25:34.652Z,96275.84
2022-10-05T16:30:55.162Z,96279.25
2022-10-05T16:36:22.769Z,96276.31
2022-10-05T16:41:40.452Z,96279.69
2022-10-05T16:46:54.689Z,96280.28
2022-10-05T16:52:01.800Z,96285.63
2022-10-05T16:57:32.675Z,96292.19
2022-10-05T17:02:59.212Z,96298.28
2022-10-05T17:08:08.527Z,96303.19
2022-10-05T17:13:19.632Z,96302.22
2022-10-05T17:18:29.957Z,96309.88
2022-10-05T17:23:55.185Z,96304.50
2022-10-05T17:29:16.554Z,96315.00
2022-10-05T17:34:18.062Z,96317.91
2022-10-05T17:39:43.883Z,96325.94
2022-10-05T17:44:45.402Z,96335.13
2022-10-05T17:50:18.405Z,96327.75
2022-10-05T17:55:37.579Z,96338.16
2022-10-05T18:00:55.979Z,96335.53
2022-10-05T18:06:20.705Z,96347.53
2022-10-05T18:11:28.202Z,96345.59
2022-10-05T18:17:02.575Z,96353.59
2022-10-05T18:22:16.456Z,96346.19
2022-10-05T18:28:00.762Z,96356.94
2022-10-05T18:33:29.874Z,96354.31
2022-10-05T18:38:55.908Z,96361.88
2022-10-05T18:44:19.464Z,96359.63
2022-10-05T18:49:29.037Z,96358.16
2022-10-05T18:55:01.394Z,96362.94
2022-10-05T19:00:15.175Z,96367.31
2022-10-05T19:05:48.790Z,96371.38
2022-10-05T19:10:55.602Z,96371.44
2022-10-05T19:16:09.508Z,96380.16
2022-10-05T19:21:27.297Z,96389.34
2022-10-05T19:26:48.548Z,96385.09
2022-10-05T19:32:08.976Z,96386.78
2022-10-05T19:37:22.145Z,96395.09
2022-10-05T19:42:52.603Z,96393.59
2022-10-05T19:48:19.273Z,96394.09
2022-10-05T19:53:30.231Z,96411.13
2022-10-05T19:58:39.841Z,96415.88
2022-10-05T20:03:47.849Z,96415.16
2022-10-05T20:08:52.344Z,96416.38
2022-10-05T20:13:53.957Z,96420.38
2022-10-05T20:19:14.039Z,96418.84
2022-10-05T20:24:21.398Z,96428.34
2022-10-05T20:29:22.984Z,96433.91
2022-10-05T20:34:24.706Z,96435.53
2022-10-05T20:39:26.260Z,96443.81
2022-10-05T20:44:27.847Z,96454.47
2022-10-05T20:49:36.174Z,96468.25
2022-10-05T20:54:39.055Z,96465.53
2022-10-05T20:59:40.669Z,96474.25
2022-10-05T21:04:47.354Z,96484.50
2022-10-05T21:09:50.944Z,96475.91
2022-10-05T21:14:52.700Z,96485.75
2022-10-05T21:19:54.253Z,96493.25
2022-10-05T21:24:55.805Z,96499.19
2022-10-05T21:29:57.316Z,96496.88
2022-10-05T21:34:58.909Z,96498.09
2022-10-05T21:40:00.716Z,96505.59
2022-10-05T21:45:02.313Z,96506.78
2022-10-05T21:50:05.214Z,96512.69
2022-10-05T21:55:07.549Z,96511.94
2022-10-05T22:00:11.302Z,96513.16
2022-10-05T22:05:13.222Z,96525.75
2022-10-05T22:10:14.980Z,96529.72
2022-10-05T22:15:16.705Z,96531.72
2022-10-05T22:20:20.293Z,96539.19
2022-10-05T22:25:22.548Z,96542.75
2022-10-05T22:30:24.094Z,96544.72
2022-10-05T22:35:25.648Z,96544.75
2022-10-05T22:40:27.191Z,96557.75
2022-10-05T22:45:32.453Z,96553.44
2022-10-05T22:50:34.503Z,96561.72
2022-10-05T22:55:36.135Z,96566.44
2022-10-05T23:00:57.050Z,96566.84
2022-10-05T23:06:03.464Z,96571.56
2022-10-05T23:11:11.897Z,96583.34
2022-10-05T23:16:15.930Z,96581.78
2022-10-05T23:21:19.743Z,96586.47
2022-10-05T23:26:23.278Z,96577.03
2022-10-05T23:31:27.173Z,96577.81
2022-10-05T23:36:32.395Z,96588.78
2022-10-05T23:41:34.445Z,96604.53
2022-10-05T23:46:36.008Z,96600.97
2022-10-05T23:51:37.562Z,96596.63
2022-10-05T23:56:39.120Z,96612.72
